Daikoku — JD3247 — position and weather

sailwx.info

Track history (hours):
 
Tides and Currents Weather Stations Pressure Air Temp Water Temp Dewpoint Dewpoint Depression Visibility Wind Speed Wind Dir Waves Ship Positions

Daikoku

Last reported at 2014-Jul-29 03:33 UTC. Time now 2014-Jul-29 08:47 UTC.
Position N 34°36' E 135°03'.

Length 95 m; draft 4.1 m.

Type: Cargo ship. MMSI: 431003009.

Date/timePositionNaut miles runAvg speedWind from/ knotsBaromVisibWave heightAir tempDewpointWater temp
2014-Jul-29 03:33N 34°36' E 135°03'1110.6
2014-Jul-29 02:33N 34°39' E 135°15'1 1.0
2014-Jul-29 01:25N 34°40' E 135°14'0 0.0
2014-Jul-29 00:31N 34°40' E 135°14'3 2.9
2014-Jul-28 23:33N 34°37' E 135°15'1312.8
2014-Jul-28 22:33N 34°26' E 135°08'1313.1
2014-Jul-28 21:33N 34°15' E 134°59'1413.9
2014-Jul-28 20:33N 34°01' E 134°60'213 4.3
2014-Jul-26 19:29N 34°49' E 139°12'1511.5
2014-Jul-26 18:11N 34°57' E 139°27'710.8
2014-Jul-26 17:33N 35°01' E 139°34'1212.0
2014-Jul-26 16:33N 35°09' E 139°45'1211.6
2014-Jul-26 15:34N 35°20' E 139°42'1111.4
2014-Jul-26 14:33N 35°29' E 139°51'7 7.1
2014-Jul-26 13:32N 35°36' E 139°46'1 0.7
2014-Jul-26 12:33N 35°36' E 139°47'0 0.1
2014-Jul-26 11:23N 35°36' E 139°47'0 0.0
2014-Jul-26 10:20N 35°36' E 139°47'0 0.0
2014-Jul-26 09:32N 35°36' E 139°47'6 6.6
2014-Jul-26 08:33N 35°30' E 139°50'1010.2
2014-Jul-26 07:34N 35°23' E 139°41'1 0.6
2014-Jul-26 06:33N 35°24' E 139°41'1 1.1
2014-Jul-26 05:33N 35°24' E 139°42'6 5.7
2014-Jul-26 04:33N 35°29' E 139°45'9 9.2
2014-Jul-26 03:33N 35°20' E 139°44'1212.4
2014-Jul-26 02:33N 35°08' E 139°46'1312.5
2014-Jul-26 01:33N 34°59' E 139°35'1414.3
2014-Jul-26 00:33N 34°51' E 139°20'1514.7
2014-Jul-25 23:33N 34°42' E 139°06'26 0.7
2014-Jul-24 10:06N 34°59' E 139°30'611.8
2014-Jul-24 09:34N 35°03' E 139°36'1211.8
2014-Jul-24 08:33N 35°12' E 139°46'1211.9
2014-Jul-24 07:33N 35°23' E 139°41'1 0.7
2014-Jul-24 06:34N 35°24' E 139°41'1212.3
2014-Jul-24 05:33N 35°34' E 139°50'4 3.5
2014-Jul-24 04:28N 35°37' E 139°47'0 0.0
2014-Jul-24 03:28N 35°37' E 139°47'0 0.0
2014-Jul-24 02:23N 35°37' E 139°47'1 0.9
2014-Jul-24 01:29N 35°36' E 139°46'0 0.0
2014-Jul-24 00:32N 35°36' E 139°46'0 0.0
2014-Jul-23 23:34N 35°36' E 139°46'7 6.4
2014-Jul-23 22:31N 35°33' E 139°53'0 0.0
2014-Jul-23 21:28N 35°33' E 139°53'0 0.1
2014-Jul-23 20:31N 35°33' E 139°53'0 0.0
2014-Jul-23 19:28N 35°33' E 139°53'0 0.0
2014-Jul-23 18:25N 35°33' E 139°53'0 0.0
2014-Jul-23 17:28N 35°33' E 139°53'0 0.0
2014-Jul-23 16:28N 35°33' E 139°53'0 0.0
2014-Jul-23 15:22N 35°33' E 139°53'0 0.0
2014-Jul-23 14:31N 35°33' E 139°53'0 0.0
2014-Jul-23 13:31N 35°33' E 139°53'0 0.0
2014-Jul-23 12:31N 35°33' E 139°53'0 0.0
2014-Jul-23 11:28N 35°33' E 139°53'1 1.4
2014-Jul-23 10:33N 35°32' E 139°53'1212.3
2014-Jul-23 09:34N 35°22' E 139°45'1211.8
2014-Jul-23 08:34N 35°10' E 139°46'1312.9
2014-Jul-23 07:33N 34°59' E 139°37'1413.7
2014-Jul-23 06:32N 34°51' E 139°23'44 3.3
2014-Jul-22 17:13N 35°02' E 138°30'36 7.7
2014-Jul-22 12:32N 34°47' E 139°10'1510.6
2014-Jul-22 11:06N 34°56' E 139°25'6 9.7
2014-Jul-22 10:31N 34°59' E 139°31'9 9.8
2014-Jul-22 09:33N 35°05' E 139°40'1111.4
2014-Jul-22 08:34N 35°15' E 139°46'1211.9
2014-Jul-22 07:33N 35°27' E 139°42'0 0.4
2014-Jul-22 06:33N 35°27' E 139°41'4 3.9
2014-Jul-22 05:31N 35°24' E 139°45'0 0.0
2014-Jul-22 04:31N 35°24' E 139°45'0 0.0
2014-Jul-22 03:31N 35°24' E 139°45'0 0.0
2014-Jul-22 02:31N 35°24' E 139°45'0 0.0
2014-Jul-22 01:31N 35°24' E 139°45'0 0.0
2014-Jul-22 00:31N 35°24' E 139°45'0 0.0
2014-Jul-21 23:31N 35°24' E 139°45'0 0.1
2014-Jul-21 22:31N 35°24' E 139°45'0 0.1
2014-Jul-21 21:31N 35°24' E 139°45'0 0.0
2014-Jul-21 20:31N 35°24' E 139°45'0 0.0
2014-Jul-21 20:16N 35°24' E 139°45'0 0.0
2014-Jul-21 19:31N 35°24' E 139°45'0 0.0
2014-Jul-21 18:31N 35°24' E 139°45'0 0.0
2014-Jul-21 17:31N 35°24' E 139°45'0 0.0
2014-Jul-21 16:31N 35°24' E 139°45'0 0.0
2014-Jul-21 15:31N 35°24' E 139°45'3 3.2
2014-Jul-21 14:31N 35°24' E 139°41'0 0.0
2014-Jul-21 13:32N 35°24' E 139°41'1 1.2
2014-Jul-21 12:33N 35°23' E 139°42'1312.7
2014-Jul-21 11:33N 35°11' E 139°46'1413.6
2014-Jul-21 10:34N 34°59' E 139°38'26 0.7
2014-Jul-19 18:33N 34°48' E 139°10'1211.0
2014-Jul-19 17:27N 34°55' E 139°22'1010.7
2014-Jul-19 16:31N 35°00' E 139°32'1212.3
2014-Jul-19 15:34N 35°07' E 139°44'1212.0
2014-Jul-19 14:34N 35°19' E 139°43'6 5.1
2014-Jul-19 13:28N 35°24' E 139°41'0 0.0
2014-Jul-19 12:31N 35°24' E 139°41'3 2.7
2014-Jul-19 11:33N 35°22' E 139°42'1111.0
2014-Jul-19 10:33N 35°11' E 139°47'1010.2
2014-Jul-19 09:34N 35°02' E 139°43'1312.8
2014-Jul-19 08:32N 34°56' E 139°29'  
Track history (hours):
 
Tides and Currents Weather Stations Pressure Air Temp Water Temp Dewpoint Dewpoint Depression Visibility Wind Speed Wind Dir Waves Ship Positions

Daikoku

Last reported at 2014-Jul-29 03:33 UTC. Time now 2014-Jul-29 08:47 UTC.
Position N 34°36' E 135°03'.

Length 95 m; draft 4.1 m.

Type: Cargo ship. MMSI: 431003009.

Date/timePositionNaut miles runAvg speedWind from/ knotsBaromVisibWave heightAir tempDewpointWater temp
2014-Jul-29 03:33N 34°36' E 135°03'1110.6
2014-Jul-29 02:33N 34°39' E 135°15'1 1.0
2014-Jul-29 01:25N 34°40' E 135°14'0 0.0
2014-Jul-29 00:31N 34°40' E 135°14'3 2.9
2014-Jul-28 23:33N 34°37' E 135°15'1312.8
2014-Jul-28 22:33N 34°26' E 135°08'1313.1
2014-Jul-28 21:33N 34°15' E 134°59'1413.9
2014-Jul-28 20:33N 34°01' E 134°60'213 4.3
2014-Jul-26 19:29N 34°49' E 139°12'1511.5
2014-Jul-26 18:11N 34°57' E 139°27'710.8
2014-Jul-26 17:33N 35°01' E 139°34'1212.0
2014-Jul-26 16:33N 35°09' E 139°45'1211.6
2014-Jul-26 15:34N 35°20' E 139°42'1111.4
2014-Jul-26 14:33N 35°29' E 139°51'7 7.1
2014-Jul-26 13:32N 35°36' E 139°46'1 0.7
2014-Jul-26 12:33N 35°36' E 139°47'0 0.1
2014-Jul-26 11:23N 35°36' E 139°47'0 0.0
2014-Jul-26 10:20N 35°36' E 139°47'0 0.0
2014-Jul-26 09:32N 35°36' E 139°47'6 6.6
2014-Jul-26 08:33N 35°30' E 139°50'1010.2
2014-Jul-26 07:34N 35°23' E 139°41'1 0.6
2014-Jul-26 06:33N 35°24' E 139°41'1 1.1
2014-Jul-26 05:33N 35°24' E 139°42'6 5.7
2014-Jul-26 04:33N 35°29' E 139°45'9 9.2
2014-Jul-26 03:33N 35°20' E 139°44'1212.4
2014-Jul-26 02:33N 35°08' E 139°46'1312.5
2014-Jul-26 01:33N 34°59' E 139°35'1414.3
2014-Jul-26 00:33N 34°51' E 139°20'1514.7
2014-Jul-25 23:33N 34°42' E 139°06'26 0.7
2014-Jul-24 10:06N 34°59' E 139°30'611.8
2014-Jul-24 09:34N 35°03' E 139°36'1211.8
2014-Jul-24 08:33N 35°12' E 139°46'1211.9
2014-Jul-24 07:33N 35°23' E 139°41'1 0.7
2014-Jul-24 06:34N 35°24' E 139°41'1212.3
2014-Jul-24 05:33N 35°34' E 139°50'4 3.5
2014-Jul-24 04:28N 35°37' E 139°47'0 0.0
2014-Jul-24 03:28N 35°37' E 139°47'0 0.0
2014-Jul-24 02:23N 35°37' E 139°47'1 0.9
2014-Jul-24 01:29N 35°36' E 139°46'0 0.0
2014-Jul-24 00:32N 35°36' E 139°46'0 0.0
2014-Jul-23 23:34N 35°36' E 139°46'7 6.4
2014-Jul-23 22:31N 35°33' E 139°53'0 0.0
2014-Jul-23 21:28N 35°33' E 139°53'0 0.1
2014-Jul-23 20:31N 35°33' E 139°53'0 0.0
2014-Jul-23 19:28N 35°33' E 139°53'0 0.0
2014-Jul-23 18:25N 35°33' E 139°53'0 0.0
2014-Jul-23 17:28N 35°33' E 139°53'0 0.0
2014-Jul-23 16:28N 35°33' E 139°53'0 0.0
2014-Jul-23 15:22N 35°33' E 139°53'0 0.0
2014-Jul-23 14:31N 35°33' E 139°53'0 0.0
2014-Jul-23 13:31N 35°33' E 139°53'0 0.0
2014-Jul-23 12:31N 35°33' E 139°53'0 0.0
2014-Jul-23 11:28N 35°33' E 139°53'1 1.4
2014-Jul-23 10:33N 35°32' E 139°53'1212.3
2014-Jul-23 09:34N 35°22' E 139°45'1211.8
2014-Jul-23 08:34N 35°10' E 139°46'1312.9
2014-Jul-23 07:33N 34°59' E 139°37'1413.7
2014-Jul-23 06:32N 34°51' E 139°23'44 3.3
2014-Jul-22 17:13N 35°02' E 138°30'36 7.7
2014-Jul-22 12:32N 34°47' E 139°10'1510.6
2014-Jul-22 11:06N 34°56' E 139°25'6 9.7
2014-Jul-22 10:31N 34°59' E 139°31'9 9.8
2014-Jul-22 09:33N 35°05' E 139°40'1111.4
2014-Jul-22 08:34N 35°15' E 139°46'1211.9
2014-Jul-22 07:33N 35°27' E 139°42'0 0.4
2014-Jul-22 06:33N 35°27' E 139°41'4 3.9
2014-Jul-22 05:31N 35°24' E 139°45'0 0.0
2014-Jul-22 04:31N 35°24' E 139°45'0 0.0
2014-Jul-22 03:31N 35°24' E 139°45'0 0.0
2014-Jul-22 02:31N 35°24' E 139°45'0 0.0
2014-Jul-22 01:31N 35°24' E 139°45'0 0.0
2014-Jul-22 00:31N 35°24' E 139°45'0 0.0
2014-Jul-21 23:31N 35°24' E 139°45'0 0.1
2014-Jul-21 22:31N 35°24' E 139°45'0 0.1
2014-Jul-21 21:31N 35°24' E 139°45'0 0.0
2014-Jul-21 20:31N 35°24' E 139°45'0 0.0
2014-Jul-21 20:16N 35°24' E 139°45'0 0.0
2014-Jul-21 19:31N 35°24' E 139°45'0 0.0
2014-Jul-21 18:31N 35°24' E 139°45'0 0.0
2014-Jul-21 17:31N 35°24' E 139°45'0 0.0
2014-Jul-21 16:31N 35°24' E 139°45'0 0.0
2014-Jul-21 15:31N 35°24' E 139°45'3 3.2
2014-Jul-21 14:31N 35°24' E 139°41'0 0.0
2014-Jul-21 13:32N 35°24' E 139°41'1 1.2
2014-Jul-21 12:33N 35°23' E 139°42'1312.7
2014-Jul-21 11:33N 35°11' E 139°46'1413.6
2014-Jul-21 10:34N 34°59' E 139°38'26 0.7
2014-Jul-19 18:33N 34°48' E 139°10'1211.0
2014-Jul-19 17:27N 34°55' E 139°22'1010.7
2014-Jul-19 16:31N 35°00' E 139°32'1212.3
2014-Jul-19 15:34N 35°07' E 139°44'1212.0
2014-Jul-19 14:34N 35°19' E 139°43'6 5.1
2014-Jul-19 13:28N 35°24' E 139°41'0 0.0
2014-Jul-19 12:31N 35°24' E 139°41'3 2.7
2014-Jul-19 11:33N 35°22' E 139°42'1111.0
2014-Jul-19 10:33N 35°11' E 139°47'1010.2
2014-Jul-19 09:34N 35°02' E 139°43'1312.8
2014-Jul-19 08:32N 34°56' E 139°29'  

Dump ship's entire track history